sensor_id;sensor_type;location;lat;lon;timestamp;pressure;altitude;pressure_sealevel;temperature;humidity
80624;BME280;70269;44.768;9.600;2024-03-25T00:00:38;96701.97;;;3.07;53.14
80624;BME280;70269;44.768;9.600;2024-03-25T00:03:04;96707.09;;;2.94;52.01
80624;BME280;70269;44.768;9.600;2024-03-25T00:05:29;96705.44;;;2.93;52.54
80624;BME280;70269;44.768;9.600;2024-03-25T00:07:57;96704.72;;;2.99;53.59
80624;BME280;70269;44.768;9.600;2024-03-25T00:10:24;96699.56;;;2.83;52.98
80624;BME280;70269;44.768;9.600;2024-03-25T00:12:50;96704.16;;;2.74;54.29
80624;BME280;70269;44.768;9.600;2024-03-25T00:15:20;96703.59;;;2.79;55.14
80624;BME280;70269;44.768;9.600;2024-03-25T00:17:49;96706.44;;;2.63;56.18
80624;BME280;70269;44.768;9.600;2024-03-25T00:20:15;96707.25;;;2.63;55.51
80624;BME280;70269;44.768;9.600;2024-03-25T00:22:41;96697.66;;;2.39;55.47
80624;BME280;70269;44.768;9.600;2024-03-25T00:25:07;96712.34;;;2.35;55.72
80624;BME280;70269;44.768;9.600;2024-03-25T00:27:34;96695.72;;;2.33;54.68
80624;BME280;70269;44.768;9.600;2024-03-25T00:29:59;96691.41;;;2.32;55.23
80624;BME280;70269;44.768;9.600;2024-03-25T00:32:25;96699.28;;;2.26;55.35
80624;BME280;70269;44.768;9.600;2024-03-25T00:34:51;96704.72;;;2.32;54.75
80624;BME280;70269;44.768;9.600;2024-03-25T00:37:16;96697.88;;;2.15;55.76
80624;BME280;70269;44.768;9.600;2024-03-25T00:39:42;96702.59;;;2.05;56.85
80624;BME280;70269;44.768;9.600;2024-03-25T00:42:07;96700.34;;;1.94;56.73
80624;BME280;70269;44.768;9.600;2024-03-25T00:44:33;96699.34;;;1.95;55.47
80624;BME280;70269;44.768;9.600;2024-03-25T00:46:59;96704.75;;;2.10;54.40
80624;BME280;70269;44.768;9.600;2024-03-25T00:49:24;96701.53;;;2.14;55.31
80624;BME280;70269;44.768;9.600;2024-03-25T00:51:50;96697.88;;;2.15;54.28
80624;BME280;70269;44.768;9.600;2024-03-25T00:54:16;96701.53;;;2.14;55.46
80624;BME280;70269;44.768;9.600;2024-03-25T00:56:41;96700.94;;;2.04;54.22
80624;BME280;70269;44.768;9.600;2024-03-25T00:59:07;96696.75;;;2.47;53.71
80624;BME280;70269;44.768;9.600;2024-03-25T01:01:33;96702.63;;;2.42;53.92
80624;BME280;70269;44.768;9.600;2024-03-25T01:04:01;96708.75;;;2.28;54.81
80624;BME280;70269;44.768;9.600;2024-03-25T01:06:27;96708.72;;;2.14;54.47
80624;BME280;70269;44.768;9.600;2024-03-25T01:08:53;96700.84;;;1.97;55.45
80624;BME280;70269;44.768;9.600;2024-03-25T01:11:18;96702.25;;;1.85;55.63
80624;BME280;70269;44.768;9.600;2024-03-25T01:13:44;96700.94;;;2.04;54.93
80624;BME280;70269;44.768;9.600;2024-03-25T01:16:10;96694.50;;;1.98;54.33
80624;BME280;70269;44.768;9.600;2024-03-25T01:18:35;96695.53;;;1.97;53.93
80624;BME280;70269;44.768;9.600;2024-03-25T01:21:01;96687.81;;;2.02;54.25
80624;BME280;70269;44.768;9.600;2024-03-25T01:23:26;96680.66;;;2.03;54.04
80624;BME280;70269;44.768;9.600;2024-03-25T01:25:52;96683.53;;;2.16;53.66
80624;BME280;70269;44.768;9.600;2024-03-25T01:28:18;96673.75;;;2.31;53.57
80624;BME280;70269;44.768;9.600;2024-03-25T01:30:44;96663.88;;;2.17;53.72
80624;BME280;70269;44.768;9.600;2024-03-25T01:33:09;96673.91;;;2.15;54.06
80624;BME280;70269;44.768;9.600;2024-03-25T01:35:35;96659.91;;;2.13;54.42
80624;BME280;70269;44.768;9.600;2024-03-25T01:38:01;96655.41;;;2.14;54.03
80624;BME280;70269;44.768;9.600;2024-03-25T01:40:26;96669.09;;;2.11;53.92
80624;BME280;70269;44.768;9.600;2024-03-25T01:42:56;96673.97;;;2.07;54.46
80624;BME280;70269;44.768;9.600;2024-03-25T01:45:22;96664.53;;;2.19;53.62
80624;BME280;70269;44.768;9.600;2024-03-25T01:47:48;96670.53;;;1.98;54.35
80624;BME280;70269;44.768;9.600;2024-03-25T01:50:14;96670.13;;;1.87;53.92
80624;BME280;70269;44.768;9.600;2024-03-25T01:52:40;96672.19;;;1.99;53.21
80624;BME280;70269;44.768;9.600;2024-03-25T01:55:07;96672.66;;;2.03;52.71
80624;BME280;70269;44.768;9.600;2024-03-25T01:57:35;96664.69;;;2.03;52.67
80624;BME280;70269;44.768;9.600;2024-03-25T02:00:03;96670.56;;;2.13;52.16
80624;BME280;70269;44.768;9.600;2024-03-25T02:02:36;96670.13;;;2.10;52.49
80624;BME280;70269;44.768;9.600;2024-03-25T02:05:04;96666.75;;;1.93;52.23
80624;BME280;70269;44.768;9.600;2024-03-25T02:07:30;96667.69;;;2.00;52.07
80624;BME280;70269;44.768;9.600;2024-03-25T02:09:56;96669.81;;;2.04;51.38
80624;BME280;70269;44.768;9.600;2024-03-25T02:12:23;96662.31;;;2.08;50.75
80624;BME280;70269;44.768;9.600;2024-03-25T02:14:49;96662.00;;;2.03;51.29
80624;BME280;70269;44.768;9.600;2024-03-25T02:17:15;96661.88;;;2.19;51.99
80624;BME280;70269;44.768;9.600;2024-03-25T02:19:41;96651.28;;;2.11;53.03
80624;BME280;70269;44.768;9.600;2024-03-25T02:22:06;96663.75;;;2.11;52.45
80624;BME280;70269;44.768;9.600;2024-03-25T02:24:33;96660.97;;;2.04;51.99
80624;BME280;70269;44.768;9.600;2024-03-25T02:26:58;96660.78;;;1.91;52.21
80624;BME280;70269;44.768;9.600;2024-03-25T02:29:33;96653.38;;;1.78;52.36
80624;BME280;70269;44.768;9.600;2024-03-25T02:31:58;96653.78;;;1.67;53.26
80624;BME280;70269;44.768;9.600;2024-03-25T02:34:24;96648.69;;;1.57;53.96
80624;BME280;70269;44.768;9.600;2024-03-25T02:36:49;96651.81;;;1.61;54.82
80624;BME280;70269;44.768;9.600;2024-03-25T02:39:15;96643.66;;;1.62;53.21
80624;BME280;70269;44.768;9.600;2024-03-25T02:41:41;96640.06;;;1.55;53.47
80624;BME280;70269;44.768;9.600;2024-03-25T02:44:06;96631.59;;;1.52;54.39
80624;BME280;70269;44.768;9.600;2024-03-25T02:46:32;96632.84;;;1.41;54.11
80624;BME280;70269;44.768;9.600;2024-03-25T02:48:59;96630.75;;;1.29;54.61
80624;BME280;70269;44.768;9.600;2024-03-25T02:51:24;96630.06;;;1.35;55.19
80624;BME280;70269;44.768;9.600;2024-03-25T02:53:50;96628.34;;;1.42;54.87
80624;BME280;70269;44.768;9.600;2024-03-25T02:56:16;96621.19;;;1.42;54.72
80624;BME280;70269;44.768;9.600;2024-03-25T02:58:41;96620.06;;;1.37;54.45
80624;BME280;70269;44.768;9.600;2024-03-25T03:01:07;96607.16;;;1.48;54.31
80624;BME280;70269;44.768;9.600;2024-03-25T03:03:33;96614.81;;;1.51;54.74
80624;BME280;70269;44.768;9.600;2024-03-25T03:05:58;96625.19;;;1.38;53.94
80624;BME280;70269;44.768;9.600;2024-03-25T03:08:24;96623.41;;;1.31;55.03
80624;BME280;70269;44.768;9.600;2024-03-25T03:10:49;96632.72;;;1.04;55.69
80624;BME280;70269;44.768;9.600;2024-03-25T03:13:15;96639.38;;;1.00;55.15
80624;BME280;70269;44.768;9.600;2024-03-25T03:15:44;96618.72;;;1.10;55.21
80624;BME280;70269;44.768;9.600;2024-03-25T03:18:10;96616.09;;;1.02;55.58
80624;BME280;70269;44.768;9.600;2024-03-25T03:20:36;96616.97;;;1.25;54.83
80624;BME280;70269;44.768;9.600;2024-03-25T03:23:01;96622.41;;;1.32;55.02
80624;BME280;70269;44.768;9.600;2024-03-25T03:25:27;96624.91;;;1.33;54.65
80624;BME280;70269;44.768;9.600;2024-03-25T03:27:55;96618.88;;;1.39;54.30
80624;BME280;70269;44.768;9.600;2024-03-25T03:30:21;96618.28;;;1.29;54.77
80624;BME280;70269;44.768;9.600;2024-03-25T03:32:46;96625.50;;;1.12;54.10
80624;BME280;70269;44.768;9.600;2024-03-25T03:35:12;96622.59;;;1.30;53.12
80624;BME280;70269;44.768;9.600;2024-03-25T03:37:38;96635.56;;;1.33;53.72
80624;BME280;70269;44.768;9.600;2024-03-25T03:40:04;96627.56;;;1.33;53.62
80624;BME280;70269;44.768;9.600;2024-03-25T03:42:32;96621.13;;;1.28;53.93
80624;BME280;70269;44.768;9.600;2024-03-25T03:44:58;96617.34;;;1.22;53.15
80624;BME280;70269;44.768;9.600;2024-03-25T03:47:24;96622.78;;;1.29;52.36
80624;BME280;70269;44.768;9.600;2024-03-25T03:49:50;96626.19;;;1.37;52.34
80624;BME280;70269;44.768;9.600;2024-03-25T03:52:15;96634.19;;;1.37;52.46
80624;BME280;70269;44.768;9.600;2024-03-25T03:54:43;96627.41;;;1.35;53.66
80624;BME280;70269;44.768;9.600;2024-03-25T03:57:09;96636.97;;;1.44;53.17
80624;BME280;70269;44.768;9.600;2024-03-25T03:59:35;96633.19;;;1.38;53.97
80624;BME280;70269;44.768;9.600;2024-03-25T04:02:00;96645.66;;;1.38;53.53
80624;BME280;70269;44.768;9.600;2024-03-25T04:04:26;96638.81;;;1.43;53.72
80624;BME280;70269;44.768;9.600;2024-03-25T04:06:51;96635.19;;;1.36;52.96
80624;BME280;70269;44.768;9.600;2024-03-25T04:09:17;96636.50;;;1.40;54.00
80624;BME280;70269;44.768;9.600;2024-03-25T04:11:43;96638.72;;;1.59;51.67
80624;BME280;70269;44.768;9.600;2024-03-25T04:14:09;96635.03;;;1.60;51.49
80624;BME280;70269;44.768;9.600;2024-03-25T04:16:35;96632.13;;;1.70;50.74
80624;BME280;70269;44.768;9.600;2024-03-25T04:19:00;96635.84;;;1.61;52.99
80624;BME280;70269;44.768;9.600;2024-03-25T04:21:26;96635.97;;;1.45;53.60
80624;BME280;70269;44.768;9.600;2024-03-25T04:23:51;96638.38;;;1.32;53.71
80624;BME280;70269;44.768;9.600;2024-03-25T04:26:18;96627.03;;;1.07;54.08
80624;BME280;70269;44.768;9.600;2024-03-25T04:28:43;96634.63;;;1.18;53.26
80624;BME280;70269;44.768;9.600;2024-03-25T04:31:09;96640.78;;;1.18;54.39
80624;BME280;70269;44.768;9.600;2024-03-25T04:33:35;96645.94;;;1.20;54.08
80624;BME280;70269;44.768;9.600;2024-03-25T04:36:01;96643.94;;;1.22;52.89
80624;BME280;70269;44.768;9.600;2024-03-25T04:38:26;96654.84;;;1.35;52.71
80624;BME280;70269;44.768;9.600;2024-03-25T04:40:52;96655.16;;;1.32;53.54
80624;BME280;70269;44.768;9.600;2024-03-25T04:43:17;96658.25;;;1.13;54.37
80624;BME280;70269;44.768;9.600;2024-03-25T04:45:43;96670.16;;;0.94;55.24
80624;BME280;70269;44.768;9.600;2024-03-25T04:48:09;96660.97;;;1.05;54.50
80624;BME280;70269;44.768;9.600;2024-03-25T04:50:35;96669.97;;;1.04;54.41
80624;BME280;70269;44.768;9.600;2024-03-25T04:53:01;96674.06;;;1.14;54.22
80624;BME280;70269;44.768;9.600;2024-03-25T04:55:27;96675.66;;;1.23;53.41
80624;BME280;70269;44.768;9.600;2024-03-25T04:57:52;96683.84;;;1.22;54.06
80624;BME280;70269;44.768;9.600;2024-03-25T05:00:18;96681.91;;;1.08;55.58
80624;BME280;70269;44.768;9.600;2024-03-25T05:02:44;96688.38;;;1.05;55.54
80624;BME280;70269;44.768;9.600;2024-03-25T05:05:09;96689.06;;;0.99;55.24
80624;BME280;70269;44.768;9.600;2024-03-25T05:07:35;96688.44;;;0.97;55.64
80624;BME280;70269;44.768;9.600;2024-03-25T05:10:03;96683.50;;;0.86;53.98
80624;BME280;70269;44.768;9.600;2024-03-25T05:12:29;96684.94;;;0.97;53.55
80624;BME280;70269;44.768;9.600;2024-03-25T05:14:56;96689.44;;;0.96;54.18
80624;BME280;70269;44.768;9.600;2024-03-25T05:17:21;96695.91;;;0.94;53.87
80624;BME280;70269;44.768;9.600;2024-03-25T05:19:47;96697.00;;;1.15;53.84
80624;BME280;70269;44.768;9.600;2024-03-25T05:22:13;96702.34;;;1.07;54.27
80624;BME280;70269;44.768;9.600;2024-03-25T05:24:38;96697.63;;;1.17;53.93
80624;BME280;70269;44.768;9.600;2024-03-25T05:27:04;96703.50;;;1.44;52.66
80624;BME280;70269;44.768;9.600;2024-03-25T05:29:30;96698.81;;;1.23;53.91
80624;BME280;70269;44.768;9.600;2024-03-25T05:31:58;96697.19;;;1.06;54.58
80624;BME280;70269;44.768;9.600;2024-03-25T05:34:24;96705.53;;;0.95;55.03
80624;BME280;70269;44.768;9.600;2024-03-25T05:36:50;96707.34;;;1.10;55.43
80624;BME280;70269;44.768;9.600;2024-03-25T05:39:16;96708.31;;;1.09;55.07
80624;BME280;70269;44.768;9.600;2024-03-25T05:41:42;96713.47;;;1.11;55.04
80624;BME280;70269;44.768;9.600;2024-03-25T05:44:08;96714.13;;;1.13;55.16
80624;BME280;70269;44.768;9.600;2024-03-25T05:46:33;96716.41;;;1.24;54.54
80624;BME280;70269;44.768;9.600;2024-03-25T05:49:03;96717.03;;;1.34;53.39
80624;BME280;70269;44.768;9.600;2024-03-25T05:51:32;96715.56;;;1.54;53.37
80624;BME280;70269;44.768;9.600;2024-03-25T05:54:01;96716.81;;;1.44;53.03
80624;BME280;70269;44.768;9.600;2024-03-25T05:56:27;96715.81;;;1.45;53.89
80624;BME280;70269;44.768;9.600;2024-03-25T05:58:57;96718.38;;;1.30;53.88
80624;BME280;70269;44.768;9.600;2024-03-25T06:01:23;96712.03;;;1.31;53.21
80624;BME280;70269;44.768;9.600;2024-03-25T06:03:49;96711.66;;;1.42;54.10
80624;BME280;70269;44.768;9.600;2024-03-25T06:06:15;96714.94;;;1.52;54.24
80624;BME280;70269;44.768;9.600;2024-03-25T06:08:41;96712.91;;;2.08;53.41
80624;BME280;70269;44.768;9.600;2024-03-25T06:11:06;96700.38;;;2.98;50.56
80624;BME280;70269;44.768;9.600;2024-03-25T06:13:32;96713.56;;;3.65;49.78
80624;BME280;70269;44.768;9.600;2024-03-25T06:15:58;96709.16;;;4.15;48.54
80624;BME280;70269;44.768;9.600;2024-03-25T06:18:24;96705.78;;;4.48;47.85
80624;BME280;70269;44.768;9.600;2024-03-25T06:20:50;96714.41;;;5.00;46.74
80624;BME280;70269;44.768;9.600;2024-03-25T06:23:25;96717.16;;;5.19;46.96
80624;BME280;70269;44.768;9.600;2024-03-25T06:25:52;96707.06;;;5.62;44.63
80624;BME280;70269;44.768;9.600;2024-03-25T06:28:18;96702.56;;;5.69;45.17
80624;BME280;70269;44.768;9.600;2024-03-25T06:30:50;96713.16;;;5.84;44.18
80624;BME280;70269;44.768;9.600;2024-03-25T06:33:35;96703.75;;;6.01;42.47
80624;BME280;70269;44.768;9.600;2024-03-25T06:36:19;96711.63;;;6.16;41.47
80624;BME280;70269;44.768;9.600;2024-03-25T06:38:45;96708.91;;;6.09;41.69
80624;BME280;70269;44.768;9.600;2024-03-25T06:41:11;96704.41;;;6.30;41.75
80624;BME280;70269;44.768;9.600;2024-03-25T06:43:37;96709.19;;;6.47;40.78
80624;BME280;70269;44.768;9.600;2024-03-25T06:46:06;96707.09;;;6.43;41.89
80624;BME280;70269;44.768;9.600;2024-03-25T06:48:33;96699.25;;;6.81;40.74
80624;BME280;70269;44.768;9.600;2024-03-25T06:51:00;96701.94;;;6.74;40.10
80624;BME280;70269;44.768;9.600;2024-03-25T06:53:28;96700.53;;;6.72;41.70
80624;BME280;70269;44.768;9.600;2024-03-25T06:56:00;96700.72;;;6.97;42.38
80624;BME280;70269;44.768;9.600;2024-03-25T06:58:29;96709.38;;;6.92;42.75
80624;BME280;70269;44.768;9.600;2024-03-25T07:00:56;96706.09;;;6.90;42.24
80624;BME280;70269;44.768;9.600;2024-03-25T07:03:23;96698.84;;;6.97;43.05
80624;BME280;70269;44.768;9.600;2024-03-25T07:05:50;96706.69;;;6.85;41.44
80624;BME280;70269;44.768;9.600;2024-03-25T07:08:21;96704.59;;;7.07;41.51
80624;BME280;70269;44.768;9.600;2024-03-25T07:10:46;96714.50;;;7.20;41.95
80624;BME280;70269;44.768;9.600;2024-03-25T07:13:13;96702.09;;;7.25;41.07
80624;BME280;70269;44.768;9.600;2024-03-25T07:15:45;96689.31;;;7.21;41.62
80624;BME280;70269;44.768;9.600;2024-03-25T07:18:11;96701.84;;;7.40;41.88
80624;BME280;70269;44.768;9.600;2024-03-25T07:20:39;96698.03;;;7.67;42.33
80624;BME280;70269;44.768;9.600;2024-03-25T07:23:04;96689.94;;;7.74;41.52
80624;BME280;70269;44.768;9.600;2024-03-25T07:25:30;96696.94;;;7.82;41.21
80624;BME280;70269;44.768;9.600;2024-03-25T07:27:58;96695.66;;;7.84;40.31
80624;BME280;70269;44.768;9.600;2024-03-25T07:30:24;96696.59;;;8.03;40.62
80624;BME280;70269;44.768;9.600;2024-03-25T07:32:57;96702.09;;;8.21;38.88
80624;BME280;70269;44.768;9.600;2024-03-25T07:35:22;96702.31;;;8.20;38.49
80624;BME280;70269;44.768;9.600;2024-03-25T07:37:48;96709.47;;;8.39;40.74
80624;BME280;70269;44.768;9.600;2024-03-25T07:40:20;96703.72;;;8.60;38.62
80624;BME280;70269;44.768;9.600;2024-03-25T07:42:47;96691.59;;;8.76;40.00
80624;BME280;70269;44.768;9.600;2024-03-25T07:45:14;96695.44;;;8.86;38.62
80624;BME280;70269;44.768;9.600;2024-03-25T07:47:40;96701.03;;;9.28;38.69
80624;BME280;70269;44.768;9.600;2024-03-25T07:50:06;96690.28;;;9.46;38.98
80624;BME280;70269;44.768;9.600;2024-03-25T07:52:32;96684.44;;;9.49;37.71
80624;BME280;70269;44.768;9.600;2024-03-25T07:54:59;96686.25;;;9.37;35.48
80624;BME280;70269;44.768;9.600;2024-03-25T07:57:25;96688.47;;;9.40;37.50
80624;BME280;70269;44.768;9.600;2024-03-25T07:59:51;96690.28;;;9.03;34.13
80624;BME280;70269;44.768;9.600;2024-03-25T08:02:17;96684.53;;;9.00;35.57
80624;BME280;70269;44.768;9.600;2024-03-25T08:04:42;96679.84;;;9.13;35.90
80624;BME280;70269;44.768;9.600;2024-03-25T08:07:08;96682.31;;;9.15;34.46
80624;BME280;70269;44.768;9.600;2024-03-25T08:09:34;96684.84;;;9.10;32.34
80624;BME280;70269;44.768;9.600;2024-03-25T08:11:59;96685.53;;;9.23;34.32
80624;BME280;70269;44.768;9.600;2024-03-25T08:14:25;96683.97;;;9.52;35.46
80624;BME280;70269;44.768;9.600;2024-03-25T08:16:53;96682.56;;;9.68;31.90
80624;BME280;70269;44.768;9.600;2024-03-25T08:19:19;96680.06;;;9.85;30.35
80624;BME280;70269;44.768;9.600;2024-03-25T08:21:44;96667.19;;;9.87;30.50
80624;BME280;70269;44.768;9.600;2024-03-25T08:24:10;96672.84;;;9.97;33.66
80624;BME280;70269;44.768;9.600;2024-03-25T08:26:37;96664.72;;;10.15;31.32
80624;BME280;70269;44.768;9.600;2024-03-25T08:29:03;96658.66;;;10.73;34.19
80624;BME280;70269;44.768;9.600;2024-03-25T08:31:29;96660.53;;;10.72;32.76
80624;BME280;70269;44.768;9.600;2024-03-25T08:33:55;96663.47;;;10.82;31.32
80624;BME280;70269;44.768;9.600;2024-03-25T08:36:20;96661.16;;;10.86;31.85
80624;BME280;70269;44.768;9.600;2024-03-25T08:38:46;96657.50;;;10.92;32.38
80624;BME280;70269;44.768;9.600;2024-03-25T08:41:11;96653.97;;;11.03;30.99
80624;BME280;70269;44.768;9.600;2024-03-25T08:43:37;96661.38;;;10.96;29.98
80624;BME280;70269;44.768;9.600;2024-03-25T08:46:03;96653.97;;;10.91;31.42
80624;BME280;70269;44.768;9.600;2024-03-25T08:48:29;96661.47;;;11.24;30.50
80624;BME280;70269;44.768;9.600;2024-03-25T08:50:55;96654.31;;;11.42;34.71
80624;BME280;70269;44.768;9.600;2024-03-25T08:53:21;96657.53;;;11.67;34.34
80624;BME280;70269;44.768;9.600;2024-03-25T08:55:47;96657.19;;;11.75;31.07
80624;BME280;70269;44.768;9.600;2024-03-25T08:58:14;96650.84;;;12.09;33.57
80624;BME280;70269;44.768;9.600;2024-03-25T09:00:40;96638.59;;;12.07;30.86
80624;BME280;70269;44.768;9.600;2024-03-25T09:03:06;96652.59;;;12.15;31.88
80624;BME280;70269;44.768;9.600;2024-03-25T09:05:31;96649.91;;;12.04;29.90
80624;BME280;70269;44.768;9.600;2024-03-25T09:07:57;96649.19;;;12.08;30.77
80624;BME280;70269;44.768;9.600;2024-03-25T09:10:24;96649.56;;;12.00;32.34
80624;BME280;70269;44.768;9.600;2024-03-25T09:13:09;96653.00;;;12.24;31.60
80624;BME280;70269;44.768;9.600;2024-03-25T09:15:34;96649.56;;;12.29;31.02
80624;BME280;70269;44.768;9.600;2024-03-25T09:18:05;96649.63;;;12.17;30.16
80624;BME280;70269;44.768;9.600;2024-03-25T09:20:31;96636.66;;;12.19;30.79
80624;BME280;70269;44.768;9.600;2024-03-25T09:22:56;96635.47;;;12.43;32.09
80624;BME280;70269;44.768;9.600;2024-03-25T09:25:23;96628.75;;;12.46;30.84
80624;BME280;70269;44.768;9.600;2024-03-25T09:27:49;96641.88;;;12.54;32.21
80624;BME280;70269;44.768;9.600;2024-03-25T09:30:16;96632.06;;;12.20;31.16
80624;BME280;70269;44.768;9.600;2024-03-25T09:32:43;96629.78;;;12.28;31.45
80624;BME280;70269;44.768;9.600;2024-03-25T09:35:09;96642.09;;;12.36;32.28
80624;BME280;70269;44.768;9.600;2024-03-25T09:37:35;96630.50;;;12.52;33.07
80624;BME280;70269;44.768;9.600;2024-03-25T09:40:02;96628.25;;;12.49;32.25
80624;BME280;70269;44.768;9.600;2024-03-25T09:42:49;96623.06;;;12.31;32.57
80624;BME280;70269;44.768;9.600;2024-03-25T09:45:17;96630.28;;;12.42;31.82
80624;BME280;70269;44.768;9.600;2024-03-25T09:47:47;96628.63;;;12.24;33.43
80624;BME280;70269;44.768;9.600;2024-03-25T09:50:14;96635.16;;;12.40;32.90
80624;BME280;70269;44.768;9.600;2024-03-25T09:52:50;96624.78;;;12.20;31.88
80624;BME280;70269;44.768;9.600;2024-03-25T09:55:16;96623.56;;;12.28;32.28
80624;BME280;70269;44.768;9.600;2024-03-25T09:57:47;96618.03;;;12.23;32.89
80624;BME280;70269;44.768;9.600;2024-03-25T10:00:13;96621.16;;;12.14;33.86
80624;BME280;70269;44.768;9.600;2024-03-25T10:02:41;96626.69;;;12.36;33.06
80624;BME280;70269;44.768;9.600;2024-03-25T10:05:08;96623.22;;;12.24;32.99
80624;BME280;70269;44.768;9.600;2024-03-25T10:07:35;96608.84;;;12.24;33.43
80624;BME280;70269;44.768;9.600;2024-03-25T10:10:05;96618.78;;;12.35;32.99
80624;BME280;70269;44.768;9.600;2024-03-25T10:12:31;96618.25;;;12.49;34.38
80624;BME280;70269;44.768;9.600;2024-03-25T10:14:57;96606.19;;;12.40;33.28
80624;BME280;70269;44.768;9.600;2024-03-25T10:17:23;96597.78;;;12.42;33.23
80624;BME280;70269;44.768;9.600;2024-03-25T10:19:49;96605.53;;;12.50;33.01
80624;BME280;70269;44.768;9.600;2024-03-25T10:22:14;96606.50;;;12.44;34.49
80624;BME280;70269;44.768;9.600;2024-03-25T10:27:16;96605.00;;;12.20;35.56
80624;BME280;70269;44.768;9.600;2024-03-25T10:29:42;96575.91;;;12.27;33.55
80624;BME280;70269;44.768;9.600;2024-03-25T10:32:08;96584.31;;;12.13;35.14
80624;BME280;70269;44.768;9.600;2024-03-25T10:34:34;96574.63;;;12.01;38.06
80624;BME280;70269;44.768;9.600;2024-03-25T10:37:01;96581.38;;;12.15;35.50
80624;BME280;70269;44.768;9.600;2024-03-25T10:39:31;96578.91;;;12.13;36.94
80624;BME280;70269;44.768;9.600;2024-03-25T10:41:59;96585.69;;;12.16;37.75
80624;BME280;70269;44.768;9.600;2024-03-25T10:44:30;96581.53;;;12.08;35.51
80624;BME280;70269;44.768;9.600;2024-03-25T10:47:01;96569.31;;;12.23;37.67
80624;BME280;70269;44.768;9.600;2024-03-25T10:52:00;96562.75;;;12.35;38.23
80624;BME280;70269;44.768;9.600;2024-03-25T10:54:30;96568.75;;;12.54;38.91
80624;BME280;70269;44.768;9.600;2024-03-25T10:56:58;96558.97;;;12.20;38.06
80624;BME280;70269;44.768;9.600;2024-03-25T10:59:26;96563.41;;;12.42;39.28
80624;BME280;70269;44.768;9.600;2024-03-25T11:01:53;96567.19;;;12.41;40.12
80624;BME280;70269;44.768;9.600;2024-03-25T11:04:20;96564.91;;;12.33;40.01
80624;BME280;70269;44.768;9.600;2024-03-25T11:06:46;96553.91;;;12.40;42.11
80624;BME280;70269;44.768;9.600;2024-03-25T11:09:22;96557.44;;;12.57;39.60
80624;BME280;70269;44.768;9.600;2024-03-25T11:11:52;96556.13;;;12.43;40.65
80624;BME280;70269;44.768;9.600;2024-03-25T11:14:18;96555.28;;;12.59;46.18
80624;BME280;70269;44.768;9.600;2024-03-25T11:16:51;96554.06;;;12.50;41.62
80624;BME280;70269;44.768;9.600;2024-03-25T11:19:18;96544.28;;;12.66;43.53
80624;BME280;70269;44.768;9.600;2024-03-25T11:21:44;96546.00;;;12.55;41.45
80624;BME280;70269;44.768;9.600;2024-03-25T11:24:10;96552.84;;;12.57;42.37
80624;BME280;70269;44.768;9.600;2024-03-25T11:26:41;96557.22;;;12.80;42.89
80624;BME280;70269;44.768;9.600;2024-03-25T11:29:06;96550.69;;;12.60;43.37
80624;BME280;70269;44.768;9.600;2024-03-25T11:31:33;96543.97;;;12.62;42.12
80624;BME280;70269;44.768;9.600;2024-03-25T11:34:05;96548.38;;;12.68;43.98
80624;BME280;70269;44.768;9.600;2024-03-25T11:36:33;96540.31;;;12.73;42.08
80624;BME280;70269;44.768;9.600;2024-03-25T11:39:06;96543.41;;;12.98;44.32
80624;BME280;70269;44.768;9.600;2024-03-25T11:41:42;96536.91;;;13.00;42.78
80624;BME280;70269;44.768;9.600;2024-03-25T11:44:09;96533.72;;;12.64;42.75
80624;BME280;70269;44.768;9.600;2024-03-25T11:46:38;96523.88;;;12.58;42.68
80624;BME280;70269;44.768;9.600;2024-03-25T11:49:12;96538.06;;;12.65;43.67
80624;BME280;70269;44.768;9.600;2024-03-25T11:51:43;96533.38;;;12.44;43.56
80624;BME280;70269;44.768;9.600;2024-03-25T11:54:10;96521.91;;;12.37;43.31
80624;BME280;70269;44.768;9.600;2024-03-25T11:56:37;96519.19;;;12.37;43.18
80624;BME280;70269;44.768;9.600;2024-03-25T11:59:05;96524.94;;;12.40;43.83
80624;BME280;70269;44.768;9.600;2024-03-25T12:01:32;96519.34;;;12.30;43.59
80624;BME280;70269;44.768;9.600;2024-03-25T12:04:09;96515.81;;;12.30;43.40
80624;BME280;70269;44.768;9.600;2024-03-25T12:06:35;96515.50;;;12.26;44.94
80624;BME280;70269;44.768;9.600;2024-03-25T12:09:01;96519.59;;;12.29;44.34
80624;BME280;70269;44.768;9.600;2024-03-25T12:11:46;96513.63;;;12.27;43.93
80624;BME280;70269;44.768;9.600;2024-03-25T12:14:14;96513.19;;;12.18;44.36
80624;BME280;70269;44.768;9.600;2024-03-25T12:16:41;96509.03;;;12.27;45.24
80624;BME280;70269;44.768;9.600;2024-03-25T12:19:07;96512.47;;;12.39;44.19
80624;BME280;70269;44.768;9.600;2024-03-25T12:21:33;96506.63;;;12.64;44.93
80624;BME280;70269;44.768;9.600;2024-03-25T12:23:59;96506.84;;;12.63;45.00
80624;BME280;70269;44.768;9.600;2024-03-25T12:26:25;96512.13;;;12.52;44.51
80624;BME280;70269;44.768;9.600;2024-03-25T12:28:51;96506.41;;;12.87;44.13
80624;BME280;70269;44.768;9.600;2024-03-25T12:31:17;96513.41;;;12.83;45.82
80624;BME280;70269;44.768;9.600;2024-03-25T12:33:46;96499.59;;;13.07;44.36
80624;BME280;70269;44.768;9.600;2024-03-25T12:36:14;96513.47;;;12.88;43.65
80624;BME280;70269;44.768;9.600;2024-03-25T12:38:40;96504.25;;;12.89;44.75
80624;BME280;70269;44.768;9.600;2024-03-25T12:41:10;96510.75;;;12.88;44.70
80624;BME280;70269;44.768;9.600;2024-03-25T12:43:42;96511.13;;;13.14;44.69
80624;BME280;70269;44.768;9.600;2024-03-25T12:46:08;96486.25;;;13.44;44.00
80624;BME280;70269;44.768;9.600;2024-03-25T12:48:36;96488.28;;;13.58;45.41
80624;BME280;70269;44.768;9.600;2024-03-25T12:51:02;96483.47;;;13.39;43.19
80624;BME280;70269;44.768;9.600;2024-03-25T12:53:28;96479.63;;;13.34;42.66
80624;BME280;70269;44.768;9.600;2024-03-25T12:55:54;96487.03;;;13.17;43.13
80624;BME280;70269;44.768;9.600;2024-03-25T12:58:19;96491.38;;;13.18;42.36
80624;BME280;70269;44.768;9.600;2024-03-25T13:00:45;96489.94;;;12.94;44.54
80624;BME280;70269;44.768;9.600;2024-03-25T13:03:11;96488.31;;;12.93;43.44
80624;BME280;70269;44.768;9.600;2024-03-25T13:05:38;96487.19;;;13.11;43.52
80624;BME280;70269;44.768;9.600;2024-03-25T13:08:03;96476.75;;;13.19;43.65
80624;BME280;70269;44.768;9.600;2024-03-25T13:10:30;96473.31;;;13.29;44.70